sensor_id;sensor_type;location;lat;lon;timestamp;P1;durP1;ratioP1;P2;durP2;ratioP2
31112;SDS011;17763;48.730;9.136;2022-07-29T00:01:14;5.85;;;5.18;;
31112;SDS011;17763;48.730;9.136;2022-07-29T00:03:42;6.15;;;5.60;;
31112;SDS011;17763;48.730;9.136;2022-07-29T00:06:12;5.93;;;5.53;;
31112;SDS011;17763;48.730;9.136;2022-07-29T00:08:39;6.05;;;5.45;;
31112;SDS011;17763;48.730;9.136;2022-07-29T00:11:04;6.38;;;5.78;;
31112;SDS011;17763;48.730;9.136;2022-07-29T00:13:32;5.38;;;4.88;;
31112;SDS011;17763;48.730;9.136;2022-07-29T00:15:58;6.03;;;5.53;;
31112;SDS011;17763;48.730;9.136;2022-07-29T00:18:23;6.00;;;5.57;;
31112;SDS011;17763;48.730;9.136;2022-07-29T00:20:52;6.47;;;5.93;;
31112;SDS011;17763;48.730;9.136;2022-07-29T00:23:23;5.00;;;4.65;;
31112;SDS011;17763;48.730;9.136;2022-07-29T00:25:48;6.97;;;5.38;;
31112;SDS011;17763;48.730;9.136;2022-07-29T00:28:16;6.03;;;5.53;;
31112;SDS011;17763;48.730;9.136;2022-07-29T00:30:41;5.90;;;5.40;;
31112;SDS011;17763;48.730;9.136;2022-07-29T00:33:12;5.57;;;5.03;;
31112;SDS011;17763;48.730;9.136;2022-07-29T00:35:40;5.63;;;5.13;;
31112;SDS011;17763;48.730;9.136;2022-07-29T00:38:08;5.93;;;5.35;;
31112;SDS011;17763;48.730;9.136;2022-07-29T00:40:40;6.15;;;5.70;;
31112;SDS011;17763;48.730;9.136;2022-07-29T00:43:07;5.95;;;5.45;;
31112;SDS011;17763;48.730;9.136;2022-07-29T00:45:35;5.72;;;5.32;;
31112;SDS011;17763;48.730;9.136;2022-07-29T00:48:03;5.38;;;4.90;;
31112;SDS011;17763;48.730;9.136;2022-07-29T00:50:36;7.18;;;5.07;;
31112;SDS011;17763;48.730;9.136;2022-07-29T00:53:06;5.45;;;4.95;;
31112;SDS011;17763;48.730;9.136;2022-07-29T00:55:32;4.82;;;4.32;;
31112;SDS011;17763;48.730;9.136;2022-07-29T00:57:58;7.22;;;4.80;;
31112;SDS011;17763;48.730;9.136;2022-07-29T01:00:25;4.85;;;4.45;;
31112;SDS011;17763;48.730;9.136;2022-07-29T01:02:52;5.05;;;4.55;;
31112;SDS011;17763;48.730;9.136;2022-07-29T01:05:19;5.45;;;4.95;;
31112;SDS011;17763;48.730;9.136;2022-07-29T01:07:46;6.25;;;4.82;;
31112;SDS011;17763;48.730;9.136;2022-07-29T01:10:16;4.82;;;4.43;;
31112;SDS011;17763;48.730;9.136;2022-07-29T01:12:43;4.72;;;4.43;;
31112;SDS011;17763;48.730;9.136;2022-07-29T01:15:14;4.97;;;4.55;;
31112;SDS011;17763;48.730;9.136;2022-07-29T01:31:16;4.80;;;4.40;;
31112;SDS011;17763;48.730;9.136;2022-07-29T01:33:55;4.80;;;4.47;;
31112;SDS011;17763;48.730;9.136;2022-07-29T01:36:27;4.85;;;4.43;;
31112;SDS011;17763;48.730;9.136;2022-07-29T01:39:19;4.50;;;4.20;;
31112;SDS011;17763;48.730;9.136;2022-07-29T01:42:12;4.30;;;3.92;;
31112;SDS011;17763;48.730;9.136;2022-07-29T01:47:38;4.80;;;4.50;;
31112;SDS011;17763;48.730;9.136;2022-07-29T01:50:13;5.28;;;4.88;;
31112;SDS011;17763;48.730;9.136;2022-07-29T01:55:21;4.38;;;4.03;;
31112;SDS011;17763;48.730;9.136;2022-07-29T01:57:54;4.22;;;3.80;;
31112;SDS011;17763;48.730;9.136;2022-07-29T02:00:22;4.55;;;4.25;;
31112;SDS011;17763;48.730;9.136;2022-07-29T02:02:49;3.78;;;3.50;;
31112;SDS011;17763;48.730;9.136;2022-07-29T02:05:20;3.83;;;3.55;;
31112;SDS011;17763;48.730;9.136;2022-07-29T02:07:49;6.13;;;4.20;;
31112;SDS011;17763;48.730;9.136;2022-07-29T02:10:19;3.55;;;3.35;;
31112;SDS011;17763;48.730;9.136;2022-07-29T02:12:50;4.15;;;3.85;;
31112;SDS011;17763;48.730;9.136;2022-07-29T02:15:18;3.87;;;3.57;;
31112;SDS011;17763;48.730;9.136;2022-07-29T02:17:55;3.80;;;3.50;;
31112;SDS011;17763;48.730;9.136;2022-07-29T02:20:25;4.20;;;3.85;;
31112;SDS011;17763;48.730;9.136;2022-07-29T02:22:51;4.93;;;3.70;;
31112;SDS011;17763;48.730;9.136;2022-07-29T02:25:19;4.18;;;3.88;;
31112;SDS011;17763;48.730;9.136;2022-07-29T02:27:50;4.28;;;3.53;;
31112;SDS011;17763;48.730;9.136;2022-07-29T02:30:16;4.20;;;3.67;;
31112;SDS011;17763;48.730;9.136;2022-07-29T02:32:49;3.75;;;3.55;;
31112;SDS011;17763;48.730;9.136;2022-07-29T02:35:16;3.83;;;3.55;;
31112;SDS011;17763;48.730;9.136;2022-07-29T02:37:46;5.35;;;3.47;;
31112;SDS011;17763;48.730;9.136;2022-07-29T02:40:38;3.97;;;3.63;;
31112;SDS011;17763;48.730;9.136;2022-07-29T02:43:07;4.60;;;4.00;;
31112;SDS011;17763;48.730;9.136;2022-07-29T02:45:33;3.60;;;3.33;;
31112;SDS011;17763;48.730;9.136;2022-07-29T02:48:00;4.35;;;3.70;;
31112;SDS011;17763;48.730;9.136;2022-07-29T02:50:42;4.30;;;4.00;;
31112;SDS011;17763;48.730;9.136;2022-07-29T02:53:16;4.38;;;3.97;;
31112;SDS011;17763;48.730;9.136;2022-07-29T02:55:51;5.22;;;3.60;;
31112;SDS011;17763;48.730;9.136;2022-07-29T02:58:32;4.32;;;3.92;;
31112;SDS011;17763;48.730;9.136;2022-07-29T03:01:00;4.32;;;3.92;;
31112;SDS011;17763;48.730;9.136;2022-07-29T03:03:29;4.20;;;3.72;;
31112;SDS011;17763;48.730;9.136;2022-07-29T03:05:57;4.53;;;4.10;;
31112;SDS011;17763;48.730;9.136;2022-07-29T03:08:24;4.18;;;3.88;;
31112;SDS011;17763;48.730;9.136;2022-07-29T03:10:57;4.43;;;4.13;;
31112;SDS011;17763;48.730;9.136;2022-07-29T03:13:23;4.85;;;4.45;;
31112;SDS011;17763;48.730;9.136;2022-07-29T03:15:50;4.57;;;4.28;;
31112;SDS011;17763;48.730;9.136;2022-07-29T03:18:22;5.03;;;4.25;;
31112;SDS011;17763;48.730;9.136;2022-07-29T03:20:48;4.05;;;3.85;;
31112;SDS011;17763;48.730;9.136;2022-07-29T03:23:18;4.90;;;4.50;;
31112;SDS011;17763;48.730;9.136;2022-07-29T03:25:49;5.75;;;4.10;;
31112;SDS011;17763;48.730;9.136;2022-07-29T03:28:15;4.25;;;3.95;;
31112;SDS011;17763;48.730;9.136;2022-07-29T03:30:43;5.40;;;4.53;;
31112;SDS011;17763;48.730;9.136;2022-07-29T03:33:09;4.35;;;3.97;;
31112;SDS011;17763;48.730;9.136;2022-07-29T03:35:37;4.30;;;4.00;;
31112;SDS011;17763;48.730;9.136;2022-07-29T03:38:03;4.32;;;4.03;;
31112;SDS011;17763;48.730;9.136;2022-07-29T03:43:10;4.50;;;4.15;;
31112;SDS011;17763;48.730;9.136;2022-07-29T03:45:40;3.72;;;3.42;;
31112;SDS011;17763;48.730;9.136;2022-07-29T03:48:12;4.15;;;3.85;;
31112;SDS011;17763;48.730;9.136;2022-07-29T03:50:40;5.38;;;3.50;;
31112;SDS011;17763;48.730;9.136;2022-07-29T03:53:05;4.07;;;3.88;;
31112;SDS011;17763;48.730;9.136;2022-07-29T03:55:40;4.05;;;3.60;;
31112;SDS011;17763;48.730;9.136;2022-07-29T03:58:12;4.57;;;4.28;;
31112;SDS011;17763;48.730;9.136;2022-07-29T04:00:39;6.00;;;4.13;;
31112;SDS011;17763;48.730;9.136;2022-07-29T04:03:06;4.93;;;4.40;;
31112;SDS011;17763;48.730;9.136;2022-07-29T04:05:33;3.88;;;3.65;;
31112;SDS011;17763;48.730;9.136;2022-07-29T04:08:01;3.97;;;3.70;;
31112;SDS011;17763;48.730;9.136;2022-07-29T04:10:27;4.45;;;4.00;;
31112;SDS011;17763;48.730;9.136;2022-07-29T04:12:55;4.35;;;3.95;;
31112;SDS011;17763;48.730;9.136;2022-07-29T04:15:20;3.83;;;3.63;;
31112;SDS011;17763;48.730;9.136;2022-07-29T04:17:46;3.92;;;3.63;;
31112;SDS011;17763;48.730;9.136;2022-07-29T04:20:11;3.95;;;3.67;;
31112;SDS011;17763;48.730;9.136;2022-07-29T04:22:38;4.88;;;3.75;;
31112;SDS011;17763;48.730;9.136;2022-07-29T04:25:05;4.38;;;3.97;;
31112;SDS011;17763;48.730;9.136;2022-07-29T04:27:30;3.03;;;2.83;;
31112;SDS011;17763;48.730;9.136;2022-07-29T04:29:56;3.58;;;3.25;;
31112;SDS011;17763;48.730;9.136;2022-07-29T04:32:25;3.20;;;3.00;;
31112;SDS011;17763;48.730;9.136;2022-07-29T04:34:51;3.78;;;3.40;;
31112;SDS011;17763;48.730;9.136;2022-07-29T04:37:19;4.90;;;3.10;;
31112;SDS011;17763;48.730;9.136;2022-07-29T04:39:45;3.33;;;3.03;;
31112;SDS011;17763;48.730;9.136;2022-07-29T04:42:13;3.10;;;2.88;;
31112;SDS011;17763;48.730;9.136;2022-07-29T04:44:38;3.50;;;3.20;;
31112;SDS011;17763;48.730;9.136;2022-07-29T04:47:07;3.00;;;2.80;;
31112;SDS011;17763;48.730;9.136;2022-07-29T04:49:38;4.00;;;3.70;;
31112;SDS011;17763;48.730;9.136;2022-07-29T04:52:06;4.00;;;3.10;;
31112;SDS011;17763;48.730;9.136;2022-07-29T04:54:32;2.90;;;2.70;;
31112;SDS011;17763;48.730;9.136;2022-07-29T04:56:58;4.47;;;2.70;;
31112;SDS011;17763;48.730;9.136;2022-07-29T04:59:26;3.72;;;3.10;;
31112;SDS011;17763;48.730;9.136;2022-07-29T05:01:52;4.82;;;3.25;;
31112;SDS011;17763;48.730;9.136;2022-07-29T05:04:17;3.05;;;2.85;;
31112;SDS011;17763;48.730;9.136;2022-07-29T05:06:45;5.50;;;3.10;;
31112;SDS011;17763;48.730;9.136;2022-07-29T05:09:13;4.25;;;3.05;;
31112;SDS011;17763;48.730;9.136;2022-07-29T05:11:39;4.95;;;3.28;;
31112;SDS011;17763;48.730;9.136;2022-07-29T05:14:04;3.38;;;3.17;;
31112;SDS011;17763;48.730;9.136;2022-07-29T05:16:30;3.83;;;2.80;;
31112;SDS011;17763;48.730;9.136;2022-07-29T05:18:58;6.28;;;3.28;;
31112;SDS011;17763;48.730;9.136;2022-07-29T05:21:26;2.60;;;2.40;;
31112;SDS011;17763;48.730;9.136;2022-07-29T05:23:56;3.58;;;2.70;;
31112;SDS011;17763;48.730;9.136;2022-07-29T05:26:22;3.00;;;2.80;;
31112;SDS011;17763;48.730;9.136;2022-07-29T05:28:47;3.40;;;3.20;;
31112;SDS011;17763;48.730;9.136;2022-07-29T05:31:16;5.47;;;3.15;;
31112;SDS011;17763;48.730;9.136;2022-07-29T05:33:41;2.88;;;2.67;;
31112;SDS011;17763;48.730;9.136;2022-07-29T05:36:07;6.03;;;3.00;;
31112;SDS011;17763;48.730;9.136;2022-07-29T05:38:33;2.90;;;2.70;;
31112;SDS011;17763;48.730;9.136;2022-07-29T05:40:59;3.28;;;2.97;;
31112;SDS011;17763;48.730;9.136;2022-07-29T05:43:26;2.97;;;2.67;;
31112;SDS011;17763;48.730;9.136;2022-07-29T05:45:52;3.85;;;2.90;;
31112;SDS011;17763;48.730;9.136;2022-07-29T05:48:20;2.80;;;2.60;;
31112;SDS011;17763;48.730;9.136;2022-07-29T05:50:49;2.92;;;2.50;;
31112;SDS011;17763;48.730;9.136;2022-07-29T05:53:14;2.70;;;2.50;;
31112;SDS011;17763;48.730;9.136;2022-07-29T05:55:41;2.97;;;2.78;;
31112;SDS011;17763;48.730;9.136;2022-07-29T05:58:07;2.95;;;2.75;;
31112;SDS011;17763;48.730;9.136;2022-07-29T06:00:35;3.30;;;3.00;;
31112;SDS011;17763;48.730;9.136;2022-07-29T06:03:00;3.75;;;2.88;;
31112;SDS011;17763;48.730;9.136;2022-07-29T06:05:26;3.10;;;2.85;;
31112;SDS011;17763;48.730;9.136;2022-07-29T06:07:54;3.22;;;3.03;;
31112;SDS011;17763;48.730;9.136;2022-07-29T06:10:20;3.13;;;2.88;;
31112;SDS011;17763;48.730;9.136;2022-07-29T06:12:45;3.35;;;3.15;;
31112;SDS011;17763;48.730;9.136;2022-07-29T06:15:11;3.30;;;3.10;;
31112;SDS011;17763;48.730;9.136;2022-07-29T06:17:42;3.50;;;3.20;;
31112;SDS011;17763;48.730;9.136;2022-07-29T06:20:08;3.35;;;3.15;;
31112;SDS011;17763;48.730;9.136;2022-07-29T06:22:37;3.70;;;3.40;;
31112;SDS011;17763;48.730;9.136;2022-07-29T06:25:02;3.60;;;3.30;;
31112;SDS011;17763;48.730;9.136;2022-07-29T06:27:33;3.93;;;2.83;;
31112;SDS011;17763;48.730;9.136;2022-07-29T06:30:01;4.30;;;3.42;;
31112;SDS011;17763;48.730;9.136;2022-07-29T06:32:27;3.38;;;3.10;;
31112;SDS011;17763;48.730;9.136;2022-07-29T06:34:56;5.40;;;3.67;;
31112;SDS011;17763;48.730;9.136;2022-07-29T06:37:24;3.63;;;3.33;;
31112;SDS011;17763;48.730;9.136;2022-07-29T06:39:49;3.75;;;3.47;;
31112;SDS011;17763;48.730;9.136;2022-07-29T06:42:35;3.83;;;3.40;;
31112;SDS011;17763;48.730;9.136;2022-07-29T06:45:06;3.38;;;3.10;;
31112;SDS011;17763;48.730;9.136;2022-07-29T06:47:34;4.80;;;3.17;;
31112;SDS011;17763;48.730;9.136;2022-07-29T06:50:03;4.22;;;3.47;;
31112;SDS011;17763;48.730;9.136;2022-07-29T06:52:29;3.85;;;3.55;;
31112;SDS011;17763;48.730;9.136;2022-07-29T06:54:57;5.50;;;3.90;;
31112;SDS011;17763;48.730;9.136;2022-07-29T06:57:24;3.60;;;3.30;;
31112;SDS011;17763;48.730;9.136;2022-07-29T06:59:49;3.88;;;3.60;;
31112;SDS011;17763;48.730;9.136;2022-07-29T07:02:17;3.88;;;3.45;;
31112;SDS011;17763;48.730;9.136;2022-07-29T07:04:45;3.60;;;3.40;;
31112;SDS011;17763;48.730;9.136;2022-07-29T07:07:11;3.40;;;3.20;;
31112;SDS011;17763;48.730;9.136;2022-07-29T07:09:36;4.15;;;3.80;;
31112;SDS011;17763;48.730;9.136;2022-07-29T07:12:02;3.92;;;3.60;;
31112;SDS011;17763;48.730;9.136;2022-07-29T07:14:30;3.75;;;3.50;;
31112;SDS011;17763;48.730;9.136;2022-07-29T07:16:56;4.47;;;3.92;;
31112;SDS011;17763;48.730;9.136;2022-07-29T07:19:22;5.10;;;3.45;;
31112;SDS011;17763;48.730;9.136;2022-07-29T07:21:48;3.70;;;3.40;;
31112;SDS011;17763;48.730;9.136;2022-07-29T07:24:16;6.43;;;5.32;;
31112;SDS011;17763;48.730;9.136;2022-07-29T07:26:41;5.32;;;4.93;;
31112;SDS011;17763;48.730;9.136;2022-07-29T07:29:09;4.10;;;3.80;;
31112;SDS011;17763;48.730;9.136;2022-07-29T07:31:37;4.68;;;3.90;;
31112;SDS011;17763;48.730;9.136;2022-07-29T07:34:03;4.32;;;3.97;;
31112;SDS011;17763;48.730;9.136;2022-07-29T07:36:29;3.42;;;3.15;;
31112;SDS011;17763;48.730;9.136;2022-07-29T07:38:55;4.78;;;4.47;;
31112;SDS011;17763;48.730;9.136;2022-07-29T07:41:23;4.43;;;3.70;;
31112;SDS011;17763;48.730;9.136;2022-07-29T07:43:51;5.53;;;4.03;;
31112;SDS011;17763;48.730;9.136;2022-07-29T07:46:19;4.68;;;4.28;;
31112;SDS011;17763;48.730;9.136;2022-07-29T07:48:45;4.63;;;4.30;;
31112;SDS011;17763;48.730;9.136;2022-07-29T07:51:10;4.10;;;3.70;;
31112;SDS011;17763;48.730;9.136;2022-07-29T07:53:40;4.60;;;4.20;;
31112;SDS011;17763;48.730;9.136;2022-07-29T07:56:09;4.50;;;4.10;;
31112;SDS011;17763;48.730;9.136;2022-07-29T07:58:35;4.47;;;4.15;;
31112;SDS011;17763;48.730;9.136;2022-07-29T08:01:01;4.40;;;4.07;;
31112;SDS011;17763;48.730;9.136;2022-07-29T08:03:27;9.50;;;7.35;;
31112;SDS011;17763;48.730;9.136;2022-07-29T08:05:55;5.78;;;5.30;;
31112;SDS011;17763;48.730;9.136;2022-07-29T08:08:22;4.77;;;4.33;;
31112;SDS011;17763;48.730;9.136;2022-07-29T08:10:48;5.22;;;4.75;;
31112;SDS011;17763;48.730;9.136;2022-07-29T08:13:17;7.68;;;5.18;;
31112;SDS011;17763;48.730;9.136;2022-07-29T08:15:43;5.43;;;4.93;;
31112;SDS011;17763;48.730;9.136;2022-07-29T08:18:12;5.70;;;4.25;;
31112;SDS011;17763;48.730;9.136;2022-07-29T08:20:38;4.47;;;4.07;;
31112;SDS011;17763;48.730;9.136;2022-07-29T08:23:05;4.88;;;4.30;;
31112;SDS011;17763;48.730;9.136;2022-07-29T08:25:35;4.68;;;4.28;;
31112;SDS011;17763;48.730;9.136;2022-07-29T08:28:01;7.55;;;4.68;;
31112;SDS011;17763;48.730;9.136;2022-07-29T08:30:27;5.93;;;4.43;;
31112;SDS011;17763;48.730;9.136;2022-07-29T08:32:54;13.93;;;5.70;;
31112;SDS011;17763;48.730;9.136;2022-07-29T08:35:21;8.52;;;4.80;;
31112;SDS011;17763;48.730;9.136;2022-07-29T08:37:47;9.35;;;5.22;;
31112;SDS011;17763;48.730;9.136;2022-07-29T08:40:17;7.13;;;4.40;;
31112;SDS011;17763;48.730;9.136;2022-07-29T08:42:44;8.18;;;4.53;;
31112;SDS011;17763;48.730;9.136;2022-07-29T08:45:10;5.50;;;4.30;;
31112;SDS011;17763;48.730;9.136;2022-07-29T08:47:38;4.85;;;3.50;;
31112;SDS011;17763;48.730;9.136;2022-07-29T08:50:08;5.22;;;3.90;;
31112;SDS011;17763;48.730;9.136;2022-07-29T08:52:37;6.00;;;4.35;;
31112;SDS011;17763;48.730;9.136;2022-07-29T08:55:07;6.97;;;4.13;;
31112;SDS011;17763;48.730;9.136;2022-07-29T08:57:34;4.53;;;3.90;;
31112;SDS011;17763;48.730;9.136;2022-07-29T09:00:05;4.93;;;4.18;;
31112;SDS011;17763;48.730;9.136;2022-07-29T09:02:35;5.10;;;4.60;;
31112;SDS011;17763;48.730;9.136;2022-07-29T09:05:07;5.05;;;4.40;;
31112;SDS011;17763;48.730;9.136;2022-07-29T09:07:33;4.50;;;4.20;;
31112;SDS011;17763;48.730;9.136;2022-07-29T09:09:59;4.15;;;3.90;;
31112;SDS011;17763;48.730;9.136;2022-07-29T09:12:28;5.85;;;5.00;;
31112;SDS011;17763;48.730;9.136;2022-07-29T09:14:56;6.97;;;4.72;;
31112;SDS011;17763;48.730;9.136;2022-07-29T09:17:41;5.10;;;4.60;;
31112;SDS011;17763;48.730;9.136;2022-07-29T09:20:15;6.93;;;4.55;;
31112;SDS011;17763;48.730;9.136;2022-07-29T09:22:42;5.18;;;4.50;;
31112;SDS011;17763;48.730;9.136;2022-07-29T09:25:08;6.13;;;4.07;;
31112;SDS011;17763;48.730;9.136;2022-07-29T09:27:36;4.60;;;4.20;;
31112;SDS011;17763;48.730;9.136;2022-07-29T09:30:06;8.20;;;4.90;;
31112;SDS011;17763;48.730;9.136;2022-07-29T09:32:33;6.13;;;4.55;;
31112;SDS011;17763;48.730;9.136;2022-07-29T09:35:21;5.47;;;4.80;;
31112;SDS011;17763;48.730;9.136;2022-07-29T09:37:53;4.82;;;4.25;;
31112;SDS011;17763;48.730;9.136;2022-07-29T09:42:50;6.95;;;4.53;;
31112;SDS011;17763;48.730;9.136;2022-07-29T09:45:29;6.95;;;4.90;;
31112;SDS011;17763;48.730;9.136;2022-07-29T09:48:15;4.20;;;3.90;;
31112;SDS011;17763;48.730;9.136;2022-07-29T09:50:46;8.65;;;5.18;;
31112;SDS011;17763;48.730;9.136;2022-07-29T09:53:31;9.30;;;5.18;;
31112;SDS011;17763;48.730;9.136;2022-07-29T09:56:03;9.63;;;4.82;;
31112;SDS011;17763;48.730;9.136;2022-07-29T09:58:29;8.65;;;4.50;;
31112;SDS011;17763;48.730;9.136;2022-07-29T10:00:58;6.43;;;4.03;;
31112;SDS011;17763;48.730;9.136;2022-07-29T10:03:24;5.55;;;4.30;;
31112;SDS011;17763;48.730;9.136;2022-07-29T10:08:35;6.40;;;4.93;;
31112;SDS011;17763;48.730;9.136;2022-07-29T10:11:09;6.35;;;4.28;;
31112;SDS011;17763;48.730;9.136;2022-07-29T10:13:35;5.10;;;4.65;;
31112;SDS011;17763;48.730;9.136;2022-07-29T10:16:01;5.40;;;4.78;;
31112;SDS011;17763;48.730;9.136;2022-07-29T10:18:30;7.13;;;4.63;;
31112;SDS011;17763;48.730;9.136;2022-07-29T10:20:56;5.40;;;4.65;;
31112;SDS011;17763;48.730;9.136;2022-07-29T10:23:24;7.40;;;5.30;;
31112;SDS011;17763;48.730;9.136;2022-07-29T10:25:51;5.82;;;4.88;;
31112;SDS011;17763;48.730;9.136;2022-07-29T10:28:16;4.80;;;4.40;;
31112;SDS011;17763;48.730;9.136;2022-07-29T10:30:44;5.22;;;4.15;;
31112;SDS011;17763;48.730;9.136;2022-07-29T10:33:28;8.30;;;5.10;;
31112;SDS011;17763;48.730;9.136;2022-07-29T10:38:55;5.82;;;5.22;;
31112;SDS011;17763;48.730;9.136;2022-07-29T10:44:34;5.85;;;4.82;;
31112;SDS011;17763;48.730;9.136;2022-07-29T10:47:04;5.93;;;4.87;;
31112;SDS011;17763;48.730;9.136;2022-07-29T10:49:30;8.25;;;5.20;;
31112;SDS011;17763;48.730;9.136;2022-07-29T10:52:04;6.22;;;5.57;;
31112;SDS011;17763;48.730;9.136;2022-07-29T10:59:46;10.68;;;6.00;;
31112;SDS011;17763;48.730;9.136;2022-07-29T11:05:07;8.23;;;5.87;;
31112;SDS011;17763;48.730;9.136;2022-07-29T11:07:38;6.20;;;5.60;;
31112;SDS011;17763;48.730;9.136;2022-07-29T11:10:23;12.15;;;6.40;;
31112;SDS011;17763;48.730;9.136;2022-07-29T11:12:49;6.80;;;5.70;;
31112;SDS011;17763;48.730;9.136;2022-07-29T11:15:20;12.00;;;6.88;;
31112;SDS011;17763;48.730;9.136;2022-07-29T11:20:31;7.63;;;6.93;;
31112;SDS011;17763;48.730;9.136;2022-07-29T11:23:16;10.00;;;7.38;;
31112;SDS011;17763;48.730;9.136;2022-07-29T11:31:34;8.23;;;7.15;;
31112;SDS011;17763;48.730;9.136;2022-07-29T11:39:37;8.30;;;6.88;;
31112;SDS011;17763;48.730;9.136;2022-07-29T11:44:59;12.18;;;9.15;;
31112;SDS011;17763;48.730;9.136;2022-07-29T11:47:26;10.68;;;8.10;;
31112;SDS011;17763;48.730;9.136;2022-07-29T11:49:53;10.57;;;7.60;;
31112;SDS011;17763;48.730;9.136;2022-07-29T11:52:22;7.68;;;7.03;;
31112;SDS011;17763;48.730;9.136;2022-07-29T11:54:48;10.90;;;8.13;;
31112;SDS011;17763;48.730;9.136;2022-07-29T11:57:19;8.90;;;8.00;;
31112;SDS011;17763;48.730;9.136;2022-07-29T11:59:46;10.35;;;8.88;;
31112;SDS011;17763;48.730;9.136;2022-07-29T12:02:12;14.55;;;8.55;;
31112;SDS011;17763;48.730;9.136;2022-07-29T12:04:50;9.55;;;8.60;;
31112;SDS011;17763;48.730;9.136;2022-07-29T12:07:18;10.15;;;8.23;;
31112;SDS011;17763;48.730;9.136;2022-07-29T12:09:53;8.13;;;7.28;;
31112;SDS011;17763;48.730;9.136;2022-07-29T12:12:19;7.88;;;6.75;;
31112;SDS011;17763;48.730;9.136;2022-07-29T12:14:45;8.88;;;7.03;;
31112;SDS011;17763;48.730;9.136;2022-07-29T12:19:57;6.68;;;6.03;;
31112;SDS011;17763;48.730;9.136;2022-07-29T12:22:27;6.97;;;6.13;;
31112;SDS011;17763;48.730;9.136;2022-07-29T12:25:00;9.15;;;6.22;;
31112;SDS011;17763;48.730;9.136;2022-07-29T12:27:27;7.53;;;6.05;;
31112;SDS011;17763;48.730;9.136;2022-07-29T12:32:22;6.80;;;6.10;;
31112;SDS011;17763;48.730;9.136;2022-07-29T12:34:49;6.47;;;5.50;;
31112;SDS011;17763;48.730;9.136;2022-07-29T12:37:15;6.82;;;5.63;;
31112;SDS011;17763;48.730;9.136;2022-07-29T12:39:43;9.65;;;6.00;;
31112;SDS011;17763;48.730;9.136;2022-07-29T12:42:15;7.63;;;6.47;;
31112;SDS011;17763;48.730;9.136;2022-07-29T12:44:48;8.32;;;5.63;;
31112;SDS011;17763;48.730;9.136;2022-07-29T12:47:15;9.48;;;6.88;;
31112;SDS011;17763;48.730;9.136;2022-07-29T12:49:43;8.52;;;6.63;;
31112;SDS011;17763;48.730;9.136;2022-07-29T12:52:25;6.85;;;6.13;;
31112;SDS011;17763;48.730;9.136;2022-07-29T12:54:58;6.70;;;5.93;;
31112;SDS011;17763;48.730;9.136;2022-07-29T12:57:24;6.70;;;5.88;;
31112;SDS011;17763;48.730;9.136;2022-07-29T13:00:04;11.02;;;6.22;;
31112;SDS011;17763;48.730;9.136;2022-07-29T13:02:32;6.55;;;6.05;;
31112;SDS011;17763;48.730;9.136;2022-07-29T13:04:59;9.57;;;6.25;;
31112;SDS011;17763;48.730;9.136;2022-07-29T13:07:26;10.90;;;6.50;;
31112;SDS011;17763;48.730;9.136;2022-07-29T13:09:54;13.50;;;6.97;;
31112;SDS011;17763;48.730;9.136;2022-07-29T13:12:34;10.02;;;7.40;;
31112;SDS011;17763;48.730;9.136;2022-07-29T13:15:00;7.55;;;6.82;;
31112;SDS011;17763;48.730;9.136;2022-07-29T13:17:42;8.75;;;5.88;;
31112;SDS011;17763;48.730;9.136;2022-07-29T13:20:11;5.13;;;4.72;;
31112;SDS011;17763;48.730;9.136;2022-07-29T13:22:42;5.80;;;5.32;;
31112;SDS011;17763;48.730;9.136;2022-07-29T13:25:08;7.95;;;5.90;;
31112;SDS011;17763;48.730;9.136;2022-07-29T13:27:37;6.20;;;5.78;;
31112;SDS011;17763;48.730;9.136;2022-07-29T13:30:07;8.90;;;5.10;;
31112;SDS011;17763;48.730;9.136;2022-07-29T13:32:35;5.93;;;5.53;;
31112;SDS011;17763;48.730;9.136;2022-07-29T13:35:02;7.00;;;6.30;;
31112;SDS011;17763;48.730;9.136;2022-07-29T13:37:30;6.28;;;5.57;;
31112;SDS011;17763;48.730;9.136;2022-07-29T13:39:59;6.13;;;5.72;;
31112;SDS011;17763;48.730;9.136;2022-07-29T13:42:25;7.70;;;5.45;;
31112;SDS011;17763;48.730;9.136;2022-07-29T13:44:53;6.70;;;5.95;;
31112;SDS011;17763;48.730;9.136;2022-07-29T13:47:19;6.68;;;5.97;;
31112;SDS011;17763;48.730;9.136;2022-07-29T13:49:46;6.78;;;6.25;;
31112;SDS011;17763;48.730;9.136;2022-07-29T13:52:14;7.55;;;6.85;;
31112;SDS011;17763;48.730;9.136;2022-07-29T13:54:43;7.45;;;6.45;;
31112;SDS011;17763;48.730;9.136;2022-07-29T13:57:09;7.70;;;7.00;;
31112;SDS011;17763;48.730;9.136;2022-07-29T13:59:38;7.93;;;6.63;;
31112;SDS011;17763;48.730;9.136;2022-07-29T14:02:06;9.23;;;6.88;;
31112;SDS011;17763;48.730;9.136;2022-07-29T14:04:32;8.18;;;7.18;;
31112;SDS011;17763;48.730;9.136;2022-07-29T14:06:58;8.35;;;7.35;;
31112;SDS011;17763;48.730;9.136;2022-07-29T14:09:26;10.27;;;7.63;;
31112;SDS011;17763;48.730;9.136;2022-07-29T14:11:52;10.25;;;7.80;;
31112;SDS011;17763;48.730;9.136;2022-07-29T14:14:18;10.57;;;6.85;;
31112;SDS011;17763;48.730;9.136;2022-07-29T14:16:44;7.30;;;6.57;;
31112;SDS011;17763;48.730;9.136;2022-07-29T14:19:09;8.77;;;6.82;;
31112;SDS011;17763;48.730;9.136;2022-07-29T14:21:35;7.68;;;6.95;;
31112;SDS011;17763;48.730;9.136;2022-07-29T14:24:02;7.72;;;6.15;;
31112;SDS011;17763;48.730;9.136;2022-07-29T14:26:31;6.75;;;6.13;;
31112;SDS011;17763;48.730;9.136;2022-07-29T14:29:01;7.57;;;6.78;;
31112;SDS011;17763;48.730;9.136;2022-07-29T14:31:27;7.05;;;6.45;;
31112;SDS011;17763;48.730;9.136;2022-07-29T14:33:54;8.48;;;6.90;;
31112;SDS011;17763;48.730;9.136;2022-07-29T14:36:20;9.18;;;7.25;;
31112;SDS011;17763;48.730;9.136;2022-07-29T14:38:46;8.70;;;6.80;;
31112;SDS011;17763;48.730;9.136;2022-07-29T14:41:11;7.85;;;7.22;;
31112;SDS011;17763;48.730;9.136;2022-07-29T14:43:39;9.30;;;7.35;;
31112;SDS011;17763;48.730;9.136;2022-07-29T14:46:05;8.93;;;7.20;;
31112;SDS011;17763;48.730;9.136;2022-07-29T14:48:32;8.95;;;7.30;;
31112;SDS011;17763;48.730;9.136;2022-07-29T14:50:57;10.73;;;8.25;;
31112;SDS011;17763;48.730;9.136;2022-07-29T14:53:25;9.60;;;8.38;;
31112;SDS011;17763;48.730;9.136;2022-07-29T14:55:51;9.35;;;7.38;;
31112;SDS011;17763;48.730;9.136;2022-07-29T14:58:16;7.78;;;7.00;;
31112;SDS011;17763;48.730;9.136;2022-07-29T15:00:42;7.65;;;6.97;;
31112;SDS011;17763;48.730;9.136;2022-07-29T15:03:08;6.80;;;6.20;;
31112;SDS011;17763;48.730;9.136;2022-07-29T15:05:36;9.52;;;6.55;;
31112;SDS011;17763;48.730;9.136;2022-07-29T15:08:04;6.82;;;6.07;;
31112;SDS011;17763;48.730;9.136;2022-07-29T15:10:32;8.20;;;7.00;;
31112;SDS011;17763;48.730;9.136;2022-07-29T15:13:01;7.10;;;6.07;;
31112;SDS011;17763;48.730;9.136;2022-07-29T15:15:28;6.37;;;5.87;;
31112;SDS011;17763;48.730;9.136;2022-07-29T15:17:54;6.82;;;6.22;;
31112;SDS011;17763;48.730;9.136;2022-07-29T15:20:20;7.43;;;6.72;;
31112;SDS011;17763;48.730;9.136;2022-07-29T15:22:46;8.48;;;7.60;;
31112;SDS011;17763;48.730;9.136;2022-07-29T15:25:16;8.35;;;7.65;;
31112;SDS011;17763;48.730;9.136;2022-07-29T15:27:44;9.57;;;8.38;;
31112;SDS011;17763;48.730;9.136;2022-07-29T15:30:10;7.90;;;7.20;;
31112;SDS011;17763;48.730;9.136;2022-07-29T15:35:06;9.10;;;8.23;;
31112;SDS011;17763;48.730;9.136;2022-07-29T15:37:32;9.32;;;8.50;;
31112;SDS011;17763;48.730;9.136;2022-07-29T15:40:00;10.65;;;8.52;;
31112;SDS011;17763;48.730;9.136;2022-07-29T15:42:26;10.95;;;8.48;;
31112;SDS011;17763;48.730;9.136;2022-07-29T15:44:51;10.25;;;8.77;;
31112;SDS011;17763;48.730;9.136;2022-07-29T15:47:17;8.38;;;7.68;;
31112;SDS011;17763;48.730;9.136;2022-07-29T15:49:43;7.78;;;7.03;;
31112;SDS011;17763;48.730;9.136;2022-07-29T15:52:09;6.57;;;5.97;;
31112;SDS011;17763;48.730;9.136;2022-07-29T15:54:36;7.50;;;6.80;;
31112;SDS011;17763;48.730;9.136;2022-07-29T15:57:05;8.55;;;7.55;;
31112;SDS011;17763;48.730;9.136;2022-07-29T15:59:31;9.20;;;8.32;;
31112;SDS011;17763;48.730;9.136;2022-07-29T16:01:57;10.38;;;9.23;;